Time;durP1;ratioP1;P1;durP2;ratioP2;P2;SDS_P1;SDS_P2;PMS_P1;PMS_P2;Temp;Humidity;BMP_temperature;BMP_pressure;BME280_temperature;BME280_humidity;BME280_pressure;Samples;Min_cycle;Max_cycle;Signal;HPM_P1;HPM_P2
2021/06/21 00:00:41;;;;;;;10.13;9.07;;;;;;;23.58;67.44;100768.19;5106121;28;20167;-75
2021/06/21 00:03:07;;;;;;;11.67;10.47;;;;;;;23.60;67.69;100776.19;5088805;28;20184;-75
2021/06/21 00:05:32;;;;;;;12.80;10.20;;;;;;;23.61;67.54;100781.31;5122996;28;20180;-76
2021/06/21 00:07:59;;;;;;;15.13;9.63;;;;;;;23.57;67.44;100780.81;5122856;28;20161;-76
2021/06/21 00:10:43;;;;;;;11.43;9.80;;;;;;;23.56;67.42;100772.84;5140481;27;20524;-77
2021/06/21 00:13:09;;;;;;;13.73;10.00;;;;;;;23.55;67.48;100777.72;5106008;28;20685;-76
2021/06/21 00:15:35;;;;;;;10.33;8.70;;;;;;;23.46;67.40;100766.69;5124181;28;20190;-77
2021/06/21 00:18:00;;;;;;;11.07;8.83;;;;;;;23.45;67.33;100778.53;5106166;28;20174;-75
2021/06/21 00:20:26;;;;;;;10.33;8.97;;;;;;;23.37;67.65;100780.31;5105700;28;20175;-76
2021/06/21 00:22:53;;;;;;;10.97;8.70;;;;;;;23.38;67.73;100784.72;5105728;28;20178;-75
2021/06/21 00:25:19;;;;;;;10.73;9.53;;;;;;;23.37;67.75;100781.09;5122735;28;20251;-76
2021/06/21 00:27:45;;;;;;;10.77;9.03;;;;;;;23.36;67.59;100788.06;5122997;28;20190;-75
2021/06/21 00:30:12;;;;;;;12.37;9.47;;;;;;;23.34;67.99;100799.09;5088719;28;20211;-75
2021/06/21 00:32:39;;;;;;;11.50;9.50;;;;;;;23.29;67.99;100790.63;5122536;28;20179;-75
2021/06/21 00:35:05;;;;;;;11.83;9.40;;;;;;;23.24;67.95;100774.44;5122727;28;20225;-77
2021/06/21 00:37:31;;;;;;;10.63;9.07;;;;;;;23.30;68.08;100795.78;5122366;28;20175;-76
2021/06/21 00:39:56;;;;;;;11.30;9.43;;;;;;;23.28;68.05;100794.75;5105455;28;20175;-75
2021/06/21 00:42:23;;;;;;;9.83;8.77;;;;;;;23.25;67.81;100798.59;5123557;28;20188;-74
2021/06/21 00:44:48;;;;;;;9.90;8.47;;;;;;;;;;5105697;28;20208;-74
2021/06/21 00:47:13;;;;;;;10.00;8.50;;;;;;;23.22;67.92;100800.41;5105136;28;20186;-74
2021/06/21 00:49:40;;;;;;;10.27;9.27;;;;;;;23.21;68.01;100796.03;5123396;28;20195;-74
2021/06/21 00:52:10;;;;;;;11.10;9.20;;;;;;;23.18;67.83;100791.41;5122554;28;20194;-75
2021/06/21 00:54:36;;;;;;;11.70;8.83;;;;;;;23.14;68.28;100790.09;5105739;28;20178;-76
2021/06/21 00:57:02;;;;;;;11.47;9.33;;;;;;;23.08;68.51;100787.28;5088220;28;20179;-76
2021/06/21 00:59:27;;;;;;;13.87;8.77;;;;;;;23.03;68.33;100779.56;5122200;28;20172;-77
2021/06/21 01:01:53;;;;;;;12.80;8.70;;;;;;;23.02;68.39;100785.75;5104951;28;20182;-76
2021/06/21 01:04:18;;;;;;;10.03;8.97;;;;;;;22.91;68.40;100769.56;5105135;28;20537;-75
2021/06/21 01:06:43;;;;;;;12.10;9.20;;;;;;;23.05;68.64;100793.19;5121900;28;20192;-75
2021/06/21 01:09:09;;;;;;;14.40;9.80;;;;;;;23.04;68.58;100805.78;5121776;28;20233;-76
2021/06/21 01:11:55;;;;;;;12.37;9.87;;;;;;;23.01;68.94;100803.97;5105247;28;20184;-76
2021/06/21 01:14:23;;;;;;;19.07;10.50;;;;;;;22.99;69.30;100815.81;5121725;28;20173;-76
2021/06/21 01:17:27;;;;;;;13.63;10.43;;;;;;;23.11;69.27;100817.34;5122069;28;20173;-77
2021/06/21 01:19:56;;;;;;;15.07;10.97;;;;;;;23.15;69.39;100814.25;5104032;28;20552;-76
2021/06/21 01:22:49;;;;;;;13.40;10.67;;;;;;;23.19;69.40;100801.41;5107565;28;20190;-75
2021/06/21 01:25:32;;;;;;;12.30;9.63;;;;;;;23.24;69.17;100802.72;5109373;28;20223;-77
2021/06/21 01:28:10;;;;;;;10.60;9.50;;;;;;;23.21;68.88;100809.41;5108268;28;20194;-75
2021/06/21 01:31:02;;;;;;;12.50;9.40;;;;;;;23.27;68.61;100805.28;5107792;28;20686;-76
2021/06/21 01:33:28;;;;;;;13.93;10.23;;;;;;;23.18;68.82;100799.88;5108161;28;20189;-76
2021/06/21 01:36:01;;;;;;;15.20;9.90;;;;;;;23.25;69.11;100788.06;5090929;28;20319;-76
2021/06/21 01:38:50;;;;;;;12.80;10.23;;;;;;;23.29;68.84;100796.28;5091173;28;20171;-76
2021/06/21 01:41:25;;;;;;;18.30;12.97;;;;;;;23.20;69.03;100790.91;5099826;28;20612;-75
2021/06/21 01:43:52;;;;;;;17.13;12.90;;;;;;;23.16;68.97;100787.53;5108125;28;20189;-76
2021/06/21 01:46:18;;;;;;;15.40;11.50;;;;;;;23.18;68.95;100782.16;5107680;28;20178;-76
2021/06/21 01:48:46;;;;;;;18.43;12.47;;;;;;;23.19;68.99;100783.72;5090699;28;20202;-76
2021/06/21 01:51:12;;;;;;;13.77;12.13;;;;;;;23.23;68.99;100792.72;5107990;28;20279;-76
2021/06/21 01:53:38;;;;;;;14.57;11.80;;;;;;;23.23;68.99;100789.88;5124382;28;20181;-76
2021/06/21 01:56:08;;;;;;;16.03;11.63;;;;;;;;;;5090494;28;20187;-76
2021/06/21 01:58:34;;;;;;;15.53;11.43;;;;;;;23.18;69.00;100787.81;5090558;28;20177;-74
2021/06/21 02:01:00;;;;;;;17.40;11.67;;;;;;;23.12;69.22;100787.78;5107361;28;20178;-76
2021/06/21 02:03:26;;;;;;;12.47;10.63;;;;;;;23.10;69.07;100783.94;5107362;28;20181;-75
2021/06/21 02:05:51;;;;;;;14.47;11.13;;;;;;;23.07;68.92;100782.91;5090212;28;20234;-76
2021/06/21 02:08:17;;;;;;;13.70;9.73;;;;;;;23.07;68.89;100787.78;5090264;28;20167;-75
2021/06/21 02:10:43;;;;;;;11.93;10.67;;;;;;;23.02;69.01;100789.31;5090332;28;20179;-75
2021/06/21 02:13:08;;;;;;;11.97;10.70;;;;;;;23.02;68.85;100797.81;5090001;28;20180;-77
2021/06/21 02:15:34;;;;;;;13.80;10.07;;;;;;;22.93;68.60;100780.34;5107082;28;20178;-75
2021/06/21 02:17:59;;;;;;;11.23;9.93;;;;;;;22.94;68.47;100790.34;5089995;28;20186;-75
2021/06/21 02:20:25;;;;;;;11.00;9.77;;;;;;;22.92;68.67;100799.34;5107192;28;20692;-77
2021/06/21 02:22:50;;;;;;;16.07;10.03;;;;;;;22.89;68.42;100799.59;5073213;28;20166;-76
2021/06/21 02:25:16;;;;;;;15.27;10.67;;;;;;;22.76;68.42;100788.81;5107142;28;20621;-76
2021/06/21 02:27:43;;;;;;;11.63;10.07;;;;;;;22.85;68.13;100801.91;5107081;28;20167;-76
2021/06/21 02:30:10;;;;;;;11.43;10.37;;;;;;;22.72;68.16;100801.66;5106834;28;20204;-76
2021/06/21 02:32:36;;;;;;;17.13;10.93;;;;;;;22.63;68.31;100784.94;5088870;28;20188;-76
2021/06/21 02:35:04;;;;;;;13.40;10.67;;;;;;;22.61;68.25;100785.44;5106784;28;20207;-76
2021/06/21 02:37:29;;;;;;;15.30;10.70;;;;;;;22.58;68.18;100783.66;5107012;28;20222;-75
2021/06/21 02:39:55;;;;;;;16.83;11.13;;;;;;;22.59;68.05;100799.31;5089715;28;20171;-75
2021/06/21 02:42:20;;;;;;;14.47;10.67;;;;;;;22.53;68.08;100798.53;5123541;28;20171;-75
2021/06/21 02:44:46;;;;;;;13.83;9.60;;;;;;;22.52;67.92;100796.22;5106769;28;20642;-75
2021/06/21 02:47:11;;;;;;;11.67;9.40;;;;;;;22.49;67.51;100789.53;5072946;28;20237;-76
2021/06/21 02:49:37;;;;;;;12.67;9.70;;;;;;;22.45;67.42;100800.31;5089432;28;20211;-75
2021/06/21 02:52:17;;;;;;;15.10;8.83;;;;;;;22.43;67.17;100804.91;5106525;28;20166;-75
2021/06/21 02:55:07;;;;;;;15.87;8.50;;;;;;;22.43;67.07;100807.72;5090079;28;20243;-75
2021/06/21 02:57:37;;;;;;;11.87;8.87;;;;;;;22.41;67.33;100811.03;5090064;28;20205;-75
2021/06/21 03:00:03;;;;;;;15.47;9.57;;;;;;;22.42;67.14;100795.63;5090007;28;20239;-75
2021/06/21 03:02:29;;;;;;;13.10;9.00;;;;;;;22.35;67.15;100778.41;5089042;28;20167;-75
2021/06/21 03:04:54;;;;;;;21.27;9.70;;;;;;;22.46;67.24;100801.84;5089239;28;20189;-76
2021/06/21 03:07:22;;;;;;;12.93;8.90;;;;;;;22.48;67.14;100790.84;5089265;28;20220;-75
2021/06/21 03:09:48;;;;;;;14.53;9.73;;;;;;;22.45;66.98;100791.06;5072781;28;20232;-75
2021/06/21 03:12:17;;;;;;;19.73;9.97;;;;;;;22.49;67.42;100800.84;5106134;28;20192;-75
2021/06/21 03:17:17;;;;;;;10.50;9.40;;;;;;;22.56;67.37;100789.03;5140435;27;20547;-76
2021/06/21 03:19:43;;;;;;;16.83;9.73;;;;;;;22.62;66.98;100809.59;5089060;28;20174;-76
2021/06/21 03:22:08;;;;;;;13.30;10.57;;;;;;;22.58;67.33;100811.91;5106155;28;20167;-77
2021/06/21 03:24:34;;;;;;;16.40;10.47;;;;;;;22.56;67.73;100820.09;5123015;28;20165;-76
2021/06/21 03:26:59;;;;;;;13.23;9.57;;;;;;;22.58;67.57;100805.47;5123108;28;20163;-75
2021/06/21 03:29:25;;;;;;;16.07;10.03;;;;;;;22.59;67.68;100804.19;5105931;28;20171;-76
2021/06/21 03:31:51;;;;;;;12.37;10.40;;;;;;;22.63;67.42;100805.47;5122845;28;20159;-76
2021/06/21 03:34:19;;;;;;;11.60;9.67;;;;;;;22.63;67.14;100799.06;5105859;28;20163;-75
2021/06/21 03:36:45;;;;;;;19.17;10.00;;;;;;;22.72;67.35;100798.84;5088977;28;20680;-77
2021/06/21 03:39:10;;;;;;;13.40;9.70;;;;;;;22.76;67.06;100799.31;5123845;28;20197;-74
2021/06/21 03:41:36;;;;;;;18.20;9.50;;;;;;;22.80;66.93;100797.81;5088475;28;20195;-74
2021/06/21 03:44:02;;;;;;;13.37;9.73;;;;;;;22.79;67.10;100796.28;5122596;28;20164;-74
2021/06/21 03:46:28;;;;;;;11.33;9.03;;;;;;;22.84;66.83;100808.84;5088638;28;20170;-76
2021/06/21 03:48:54;;;;;;;20.17;9.90;;;;;;;22.83;66.88;100813.72;5105326;28;20187;-74
2021/06/21 03:51:19;;;;;;;18.97;9.50;;;;;;;22.81;66.86;100818.34;5105514;28;20182;-74
2021/06/21 03:53:45;;;;;;;15.73;9.67;;;;;;;22.90;66.65;100830.19;5122232;28;20172;-74
2021/06/21 03:56:11;;;;;;;15.23;9.20;;;;;;;22.96;66.14;100842.25;5088294;28;20210;-78
2021/06/21 03:58:36;;;;;;;15.00;9.30;;;;;;;23.02;66.01;100837.38;5122324;28;20233;-74
2021/06/21 04:01:02;;;;;;;18.23;10.00;;;;;;;23.04;66.05;100828.41;5105276;28;20238;-74
2021/06/21 04:03:27;;;;;;;16.77;10.70;;;;;;;23.04;66.23;100828.41;5105040;28;20185;-74
2021/06/21 04:05:53;;;;;;;14.93;9.90;;;;;;;23.10;66.17;100827.13;5122062;28;20166;-74
2021/06/21 04:08:19;;;;;;;13.90;10.50;;;;;;;23.16;66.00;100836.38;5121831;28;20170;-74
2021/06/21 04:10:45;;;;;;;17.00;11.03;;;;;;;23.25;65.84;100841.00;5122113;28;20222;-76
2021/06/21 04:13:11;;;;;;;17.63;10.73;;;;;;;23.31;65.45;100838.94;5104985;28;20179;-74
2021/06/21 04:15:37;;;;;;;18.97;11.53;;;;;;;23.38;65.59;100844.88;5121884;28;20229;-76
2021/06/21 04:18:05;;;;;;;22.17;11.83;;;;;;;23.36;65.79;100843.84;5123322;28;20170;-74
2021/06/21 04:20:30;;;;;;;17.53;11.87;;;;;;;23.36;65.90;100841.78;5105100;28;20194;-74
2021/06/21 04:22:56;;;;;;;18.47;12.83;;;;;;;23.40;65.65;100839.47;5104629;28;20177;-74
2021/06/21 04:25:22;;;;;;;20.80;12.37;;;;;;;23.47;65.60;100835.34;5121659;28;20178;-74
2021/06/21 04:27:48;;;;;;;22.40;13.50;;;;;;;23.51;65.48;100842.28;5095956;28;20183;-74
2021/06/21 04:30:15;;;;;;;17.07;12.40;;;;;;;23.53;65.69;100847.41;5107806;28;20175;-74
2021/06/21 04:33:10;;;;;;;20.63;13.63;;;;;;;23.57;65.88;100840.22;5140354;27;20505;-75
2021/06/21 04:35:35;;;;;;;22.37;13.60;;;;;;;23.64;65.98;100845.34;5106001;28;20178;-76
2021/06/21 04:38:01;;;;;;;22.33;14.50;;;;;;;23.63;65.70;100843.81;5124358;28;20158;-75
2021/06/21 04:40:29;;;;;;;25.93;14.67;;;;;;;23.77;65.61;100848.41;5122825;28;20174;-75
2021/06/21 04:42:55;;;;;;;20.80;14.63;;;;;;;23.93;65.43;100855.34;5105764;28;20167;-75
2021/06/21 04:45:20;;;;;;;24.03;14.23;;;;;;;24.17;65.03;100872.50;5122722;28;20158;-75
2021/06/21 04:47:46;;;;;;;27.53;14.53;;;;;;;24.37;64.82;100875.00;5105506;28;20182;-75
2021/06/21 04:50:13;;;;;;;21.97;13.63;;;;;;;24.47;64.49;100864.94;5122493;28;20177;-75
2021/06/21 04:53:55;;;;;;;25.83;13.60;;;;;;;24.71;63.98;100865.84;5139495;27;21035;-75
2021/06/21 04:56:21;;;;;;;18.30;12.70;;;;;;;24.87;63.50;100867.81;5138860;28;20229;-75
2021/06/21 04:59:34;;;;;;;20.90;13.35;;;;;;;28.64;52.43;100875.75;5134239;27;20423;-76
2021/06/21 05:01:59;;;;;;;23.00;12.73;;;;;;;28.43;51.33;100814.28;5101471;28;20307;-78
2021/06/21 05:04:25;;;;;;;20.20;13.23;;;;;;;28.32;51.90;100837.28;5084633;28;20159;-73
2021/06/21 05:06:50;;;;;;;22.33;13.20;;;;;;;28.61;51.42;100828.38;5101950;28;20167;-76
2021/06/21 05:09:16;;;;;;;19.83;13.00;;;;;;;28.65;51.69;100850.84;5084760;28;20171;-76
2021/06/21 05:11:41;;;;;;;18.47;13.17;;;;;;;28.87;50.90;100859.66;5101977;28;20170;-76
2021/06/21 05:14:07;;;;;;;19.13;13.03;;;;;;;28.59;51.53;100830.25;5101641;28;20159;-79
2021/06/21 05:16:32;;;;;;;16.03;12.63;;;;;;;28.82;51.21;100836.97;5102054;28;20185;-76
2021/06/21 05:18:58;;;;;;;22.23;13.03;;;;;;;29.25;50.51;100885.75;5084349;28;20191;-76
2021/06/21 05:21:24;;;;;;;16.23;12.70;;;;;;;29.24;49.57;100861.41;5118354;28;20190;-75
2021/06/21 05:23:49;;;;;;;18.67;13.50;;;;;;;28.25;49.69;100693.38;5101181;28;20175;-77
2021/06/21 05:26:15;;;;;;;19.87;14.30;;;;;;;29.15;49.66;100802.72;5101522;28;20580;-78
2021/06/21 05:28:40;;;;;;;19.40;15.13;;;;;;;29.78;49.15;100867.03;5084509;28;20178;-77
2021/06/21 05:31:06;;;;;;;19.70;16.50;;;;;;;29.66;48.78;100854.38;5084702;28;20240;-75
2021/06/21 05:33:32;;;;;;;23.47;17.70;;;;;;;29.74;48.60;100847.38;5101217;28;20163;-76
2021/06/21 05:35:57;;;;;;;19.53;15.83;;;;;;;29.74;48.38;100884.50;5101104;28;20198;-75
2021/06/21 05:38:23;;;;;;;16.57;14.57;;;;;;;29.52;48.88;100873.66;5100785;28;20191;-74
2021/06/21 05:42:41;;;;;;;21.57;15.60;;;;;;;30.00;48.47;100890.03;5139085;27;20509;-76
2021/06/21 05:45:07;;;;;;;19.47;15.43;;;;;;;29.95;48.09;100865.25;5104929;28;20193;-75
2021/06/21 05:47:33;;;;;;;20.60;15.13;;;;;;;29.81;47.64;100840.97;5121531;28;20167;-74
2021/06/21 05:49:58;;;;;;;15.90;12.90;;;;;;;30.06;47.71;100889.91;5138870;28;20167;-75
2021/06/21 05:52:24;;;;;;;15.63;11.77;;;;;;;30.15;46.82;100878.00;5105081;28;20162;-76
2021/06/21 05:54:49;;;;;;;12.87;11.43;;;;;;;30.19;46.81;100902.00;5104958;28;20174;-73
2021/06/21 05:57:15;;;;;;;13.53;12.13;;;;;;;30.32;46.25;100873.31;5122065;28;20178;-74
2021/06/21 05:59:55;;;;;;;16.13;12.90;;;;;;;30.40;46.42;100876.97;5176845;27;257500;-75
2021/06/21 06:02:21;;;;;;;15.17;11.67;;;;;;;30.71;45.45;100881.53;5129405;27;20177;-73
2021/06/21 06:04:46;;;;;;;12.10;10.17;;;;;;;30.76;45.67;100905.59;5146269;27;20173;-74
2021/06/21 06:07:12;;;;;;;13.23;9.90;;;;;;;30.65;45.81;100891.59;5146072;27;20177;-74
2021/06/21 06:09:37;;;;;;;14.63;10.93;;;;;;;30.46;45.43;100871.84;5145977;27;20622;-75
2021/06/21 06:12:03;;;;;;;13.73;10.33;;;;;;;29.88;46.96;100865.19;5128726;27;20169;-75
2021/06/21 06:14:30;;;;;;;13.37;10.23;;;;;;;30.33;47.10;100934.13;5129214;27;20546;-75
2021/06/21 06:16:56;;;;;;;15.37;10.23;;;;;;;30.34;47.03;100935.63;5128545;27;20154;-75
2021/06/21 06:19:21;;;;;;;12.43;11.13;;;;;;;30.17;47.57;100924.69;5162638;27;20697;-75
2021/06/21 06:21:47;;;;;;;13.43;11.07;;;;;;;29.86;48.14;100922.13;5145609;27;20188;-75
2021/06/21 06:24:13;;;;;;;14.17;12.73;;;;;;;29.97;47.84;100916.91;5128708;27;20161;-75
2021/06/21 06:26:42;;;;;;;14.87;13.33;;;;;;;29.78;48.19;100896.38;5162887;27;20165;-76
2021/06/21 06:29:08;;;;;;;15.37;12.77;;;;;;;29.83;47.90;100881.16;5145591;27;20232;-76
2021/06/21 06:31:33;;;;;;;13.43;12.07;;;;;;;30.07;47.02;100903.63;5144839;27;20240;-75
2021/06/21 06:33:59;;;;;;;17.87;12.93;;;;;;;29.86;47.63;100900.06;5145432;27;20161;-75
2021/06/21 06:36:25;;;;;;;15.40;12.63;;;;;;;29.85;48.08;100921.38;5162562;27;20177;-75
2021/06/21 06:38:50;;;;;;;20.27;13.10;;;;;;;29.61;47.65;100853.19;5144868;27;20272;-75
2021/06/21 06:41:16;;;;;;;14.53;13.00;;;;;;;30.12;47.24;100914.19;5145445;27;20181;-75
2021/06/21 06:45:34;;;;;;;14.50;12.03;;;;;;;30.74;45.88;100916.81;5139695;27;20527;-76
2021/06/21 06:48:00;;;;;;;13.70;12.07;;;;;;;30.92;44.81;100872.81;5105034;28;20175;-76
2021/06/21 06:50:26;;;;;;;16.57;12.50;;;;;;;31.19;44.59;100894.06;5121904;28;20182;-75
2021/06/21 06:52:51;;;;;;;14.83;12.60;;;;;;;31.08;44.39;100886.59;5105271;28;20171;-73
2021/06/21 06:58:51;;;;;;;13.70;12.07;;;;;;;30.72;45.57;100868.78;5137293;28;20186;-74
2021/06/21 07:02:21;;;;;;;14.07;12.33;;;;;;;31.01;45.37;100921.69;5139398;27;20563;-74
2021/06/21 07:04:47;;;;;;;15.47;13.33;;;;;;;30.67;45.77;100903.25;5105550;28;20234;-76
2021/06/21 07:07:12;;;;;;;14.37;12.90;;;;;;;30.66;45.71;100898.88;5122354;28;20171;-76
2021/06/21 07:11:48;;;;;;;13.73;12.33;;;;;;;31.53;43.92;100915.31;5175575;27;286098;-79
2021/06/21 07:14:13;;;;;;;14.43;12.90;;;;;;;31.54;43.40;100878.84;5145887;27;20169;-79
2021/06/21 07:16:39;;;;;;;14.63;11.93;;;;;;;31.96;42.83;100888.59;5128605;27;20601;-75
2021/06/21 07:19:04;;;;;;;15.33;12.03;;;;;;;32.12;42.67;100898.69;5128558;27;20184;-77
2021/06/21 07:21:30;;;;;;;14.00;12.57;;;;;;;32.26;41.83;100897.19;5145549;27;20195;-79
2021/06/21 07:24:38;;;;;;;14.47;12.97;;;;;;;32.47;41.67;100884.13;5138958;27;20529;-77
2021/06/21 07:27:05;;;;;;;14.43;12.00;;;;;;;32.61;40.24;100896.09;5122068;28;20186;-77
2021/06/21 07:29:30;;;;;;;13.40;12.00;;;;;;;31.74;41.76;100809.91;5122465;28;20159;-78
2021/06/21 07:33:14;;;;;;;15.17;13.57;;;;;;;32.60;42.22;100898.22;5140018;27;20528;-80
2021/06/21 07:35:40;;;;;;;13.87;12.47;;;;;;;32.62;41.42;100892.66;5122689;28;20175;-79
2021/06/21 07:38:09;;;;;;;14.50;12.77;;;;;;;32.26;41.54;100860.66;5105809;28;20262;-79
2021/06/21 07:40:38;;;;;;;15.60;13.10;;;;;;;32.11;41.94;100882.84;5105600;28;20165;-79
2021/06/21 07:43:04;;;;;;;15.60;13.00;;;;;;;32.00;43.26;100918.41;5105657;28;20253;-79
2021/06/21 07:45:30;;;;;;;16.07;13.00;;;;;;;32.08;42.32;100875.38;5104965;28;20247;-79
2021/06/21 07:47:58;;;;;;;13.57;12.17;;;;;;;32.03;43.11;100919.34;5121606;28;20170;-78
2021/06/21 07:50:24;;;;;;;14.70;13.03;;;;;;;31.80;42.44;100899.34;5104816;28;20213;-79
2021/06/21 07:52:49;;;;;;;14.57;13.07;;;;;;;31.42;43.40;100880.59;5121520;28;20226;-79
2021/06/21 07:55:15;;;;;;;16.23;13.27;;;;;;;31.37;44.12;100895.84;5122048;28;20182;-79
2021/06/21 07:57:40;;;;;;;14.73;13.07;;;;;;;31.17;44.44;100886.03;5104604;28;20174;-79
2021/06/21 08:00:07;;;;;;;17.23;13.53;;;;;;;31.41;43.95;100919.91;5121348;28;20178;-79
2021/06/21 08:02:32;;;;;;;16.40;12.90;;;;;;;30.78;44.72;100825.66;5121526;28;20155;-79
2021/06/21 08:05:16;;;;;;;15.03;13.43;;;;;;;31.27;44.84;100917.78;5139594;27;20879;-80
2021/06/21 08:07:42;;;;;;;15.30;12.90;;;;;;;30.77;44.59;100875.63;5121908;28;20185;-77
2021/06/21 08:10:08;;;;;;;14.37;12.80;;;;;;;31.02;44.94;100903.16;5122030;28;20171;-77
2021/06/21 08:12:34;;;;;;;15.40;13.00;;;;;;;30.81;45.14;100896.81;5105175;28;20178;-78
2021/06/21 08:14:59;;;;;;;13.80;12.37;;;;;;;30.25;46.11;100839.72;5104864;28;20189;-78
2021/06/21 08:17:25;;;;;;;14.83;11.93;;;;;;;30.44;44.03;100833.72;5138918;28;20162;-79
2021/06/21 08:19:51;;;;;;;13.13;11.77;;;;;;;31.31;44.79;100921.78;5139199;28;20544;-78
2021/06/21 08:22:21;;;;;;;17.67;12.70;;;;;;;30.46;44.35;100814.66;5087931;28;20175;-78
2021/06/21 08:24:50;;;;;;;14.47;13.10;;;;;;;31.21;44.83;100885.69;5121583;28;20641;-78
2021/06/21 08:27:19;;;;;;;15.43;13.60;;;;;;;31.35;44.56;100884.19;5105121;28;20196;-79
2021/06/21 08:29:45;;;;;;;13.13;11.80;;;;;;;31.57;43.85;100869.13;5121863;28;20611;-79
2021/06/21 08:32:11;;;;;;;20.57;11.97;;;;;;;31.74;43.62;100904.47;5104654;28;20192;-78
2021/06/21 08:34:37;;;;;;;11.87;10.60;;;;;;;32.05;41.88;100888.03;5104542;28;20175;-79
2021/06/21 08:37:03;;;;;;;10.80;9.80;;;;;;;32.03;42.00;100913.63;5104343;28;20181;-79
2021/06/21 08:39:28;;;;;;;12.10;10.37;;;;;;;31.73;41.19;100844.88;5122858;28;20163;-78
2021/06/21 08:41:54;;;;;;;13.37;10.10;;;;;;;32.37;40.81;100905.38;5104345;28;20173;-78
2021/06/21 08:44:20;;;;;;;15.03;9.27;;;;;;;32.32;40.28;100884.16;5121482;28;20186;-78
2021/06/21 08:46:47;;;;;;;12.23;10.00;;;;;;;32.20;40.32;100842.09;5087465;28;20269;-79
2021/06/21 08:49:13;;;;;;;12.27;9.43;;;;;;;32.59;41.00;100888.06;5104501;28;20191;-78
2021/06/21 08:51:40;;;;;;;10.73;9.60;;;;;;;32.82;40.55;100917.47;5087973;28;20175;-78
2021/06/21 08:54:09;;;;;;;13.53;10.37;;;;;;;32.58;41.02;100903.78;5121332;28;20241;-79
2021/06/21 08:56:34;;;;;;;12.33;10.20;;;;;;;32.14;41.30;100830.09;5121592;28;20171;-76
2021/06/21 08:59:04;;;;;;;11.50;10.07;;;;;;;32.76;40.79;100910.41;5122176;28;20213;-78
2021/06/21 09:06:47;;;;;;;12.03;9.13;;;;;;;33.20;39.90;100886.44;5139336;27;20524;-77
2021/06/21 09:09:12;;;;;;;9.30;8.40;;;;;;;33.54;39.65;100882.97;5104646;28;20254;-77
2021/06/21 09:11:51;;;;;;;9.80;8.85;;;;;;;33.94;40.49;100904.47;5122076;28;20158;-80
2021/06/21 09:14:26;;;;;;;11.23;8.88;;;;;;;34.12;38.87;100900.28;5123629;28;20203;-81
2021/06/21 09:16:52;;;;;;;12.77;9.38;;;;;;;33.94;38.49;100883.59;5123181;28;20174;-80
2021/06/21 09:19:18;;;;;;;11.00;8.63;;;;;;;34.13;39.38;100895.28;5123601;28;20170;-79
2021/06/21 09:21:44;;;;;;;12.95;9.07;;;;;;;34.24;37.88;100884.03;5104989;28;20189;-77
2021/06/21 09:24:15;;;;;;;11.40;8.80;;;;;;;33.94;39.08;100880.72;5104499;28;20196;-75
2021/06/21 09:26:41;;;;;;;9.65;8.65;;;;;;;34.17;39.13;100867.63;5104791;28;20206;-77
2021/06/21 09:29:06;;;;;;;12.43;9.20;;;;;;;34.43;38.33;100889.97;5104402;28;20170;-77
2021/06/21 09:31:48;;;;;;;10.50;9.18;;;;;;;34.49;37.84;100840.81;5087447;28;20186;-77
2021/06/21 09:34:14;;;;;;;11.43;8.25;;;;;;;34.47;37.64;100809.75;5120823;28;20216;-77
2021/06/21 09:36:39;;;;;;;10.55;8.13;;;;;;;35.26;37.45;100880.28;5087163;28;20355;-77
2021/06/21 09:39:18;;;;;;;10.45;8.45;;;;;;;35.42;37.01;100876.53;5087234;28;20193;-76
2021/06/21 09:42:06;;;;;;;9.85;7.82;;;;;;;35.59;36.98;100893.78;5120854;28;20178;-78
2021/06/21 09:46:13;;;;;;;10.48;8.18;;;;;;;35.38;37.29;100889.88;5139004;27;20525;-78
2021/06/21 09:48:46;;;;;;;9.05;8.15;;;;;;;35.58;36.34;100854.75;5104315;28;20178;-81
2021/06/21 09:52:52;;;;;;;8.80;7.97;;;;;;;35.72;35.88;100844.34;5180594;27;144284;-77
2021/06/21 09:56:34;;;;;;;8.70;7.65;;;;;;;36.25;34.86;100875.91;5098490;28;20532;-76
2021/06/21 09:59:00;;;;;;;7.97;7.15;;;;;;;36.16;35.63;100826.78;5081140;28;20180;-79
2021/06/21 10:01:30;;;;;;;11.73;7.55;;;;;;;36.69;34.70;100867.69;5047551;28;20600;-78
2021/06/21 10:03:55;;;;;;;9.45;7.15;;;;;;;36.60;34.21;100796.25;5064798;28;20217;-78
2021/06/21 10:06:21;;;;;;;8.45;6.63;;;;;;;37.43;34.12;100849.22;5065108;28;20164;-78
2021/06/21 10:08:53;;;;;;;11.63;6.70;;;;;;;37.57;33.50;100827.88;5081768;28;20222;-82
2021/06/21 10:11:36;;;;;;;8.98;6.60;;;;;;;37.68;32.69;100835.13;5065027;28;20172;-78
2021/06/21 10:14:06;;;;;;;11.05;6.35;;;;;;;38.20;31.79;100850.28;5081725;28;20164;-80
2021/06/21 10:16:32;;;;;;;6.13;5.38;;;;;;;37.96;31.48;100825.47;5048205;28;20188;-80
2021/06/21 10:18:58;;;;;;;7.00;5.47;;;;;;;38.54;31.57;100858.41;5048182;28;20178;-81
2021/06/21 10:21:24;;;;;;;8.52;5.82;;;;;;;38.47;30.74;100810.91;5064143;28;20205;-79
2021/06/21 10:23:53;;;;;;;7.50;5.35;;;;;;;39.50;29.74;100852.31;5047764;28;20172;-79
2021/06/21 10:26:18;;;;;;;9.50;5.68;;;;;;;40.33;28.47;100845.13;5082417;28;20168;-77
2021/06/21 10:28:45;;;;;;;10.87;6.50;;;;;;;32.34;41.47;100835.56;5063522;28;20413;-72
2021/06/21 10:31:10;;;;;;;11.13;6.50;;;;;;;29.69;48.77;100848.28;5080921;28;20641;-72
2021/06/21 10:33:36;;;;;;;8.73;6.40;;;;;;;28.68;49.92;100756.41;5064174;28;20180;-72
2021/06/21 10:36:03;;;;;;;9.68;6.68;;;;;;;29.13;50.78;100844.56;5081309;28;20196;-69
2021/06/21 10:38:29;;;;;;;10.93;6.60;;;;;;;28.85;51.12;100828.06;5080719;28;20176;-71
2021/06/21 10:41:03;;;;;;;10.63;6.63;;;;;;;28.56;52.25;100817.09;5063956;28;20202;-66
2021/06/21 10:43:40;;;;;;;8.85;6.63;;;;;;;28.52;52.64;100830.94;5064879;28;20172;-69
2021/06/21 10:46:18;;;;;;;10.35;6.93;;;;;;;28.66;53.12;100826.72;5080644;28;20172;-71
2021/06/21 10:49:07;;;;;;;9.00;7.07;;;;;;;28.62;53.50;100818.50;5081970;28;20266;-72
2021/06/21 10:51:36;;;;;;;9.68;6.75;;;;;;;28.54;52.94;100829.06;5081939;28;20239;-71
2021/06/21 10:54:02;;;;;;;8.10;7.15;;;;;;;28.77;51.67;100817.91;5082363;28;20184;-70
2021/06/21 10:56:58;;;;;;;9.45;7.28;;;;;;;28.75;53.56;100827.00;5063713;28;20235;-71
2021/06/21 10:59:25;;;;;;;10.57;7.65;;;;;;;28.75;53.88;100827.00;5043078;28;20188;-73
2021/06/21 11:01:53;;;;;;;11.90;8.77;;;;;;;28.87;54.42;100825.41;5059859;28;20703;-72
2021/06/21 11:06:22;;;;;;;9.75;7.93;;;;;;;28.81;54.27;100818.34;5139796;27;21051;-73
2021/06/21 11:08:50;;;;;;;9.32;7.82;;;;;;;28.75;53.72;100820.53;5123650;28;20174;-73
2021/06/21 11:11:34;;;;;;;7.85;7.03;;;;;;;28.69;52.90;100817.06;5122605;28;20181;-73
2021/06/21 11:14:06;;;;;;;9.02;7.53;;;;;;;28.87;52.40;100816.13;5122675;28;20166;-73
2021/06/21 11:16:31;;;;;;;9.90;6.82;;;;;;;28.79;52.34;100810.34;5124054;28;20184;-74
2021/06/21 11:18:57;;;;;;;8.15;7.25;;;;;;;28.94;52.26;100816.19;5105571;28;20178;-72
2021/06/21 11:21:23;;;;;;;11.37;7.30;;;;;;;-140.51;100.00;70226.34;5123182;28;20394;-73
2021/06/21 11:23:52;;;;;;;10.57;7.32;;;;;;;-140.51;100.00;70226.34;5123656;28;20171;-69
2021/06/21 11:26:18;;;;;;;12.32;7.30;;;;;;;-140.51;100.00;70226.34;5123226;28;20178;-67
2021/06/21 11:28:47;;;;;;;11.60;6.97;;;;;;;-140.51;100.00;70226.34;5122404;28;20186;-74
2021/06/21 11:31:23;;;;;;;12.38;7.55;;;;;;;-140.51;100.00;70226.34;5122231;28;20317;-74
2021/06/21 11:34:03;;;;;;;15.35;7.22;;;;;;;-140.51;100.00;70226.34;5122336;28;20158;-68
2021/06/21 11:36:38;;;;;;;11.48;7.00;;;;;;;-140.51;100.00;70226.34;5107319;28;20166;-67
2021/06/21 11:39:27;;;;;;;6.90;6.20;;;;;;;-140.51;100.00;70226.34;5123630;28;20162;-69
2021/06/21 11:41:59;;;;;;;7.40;6.57;;;;;;;-140.51;100.00;70226.34;5121431;28;20398;-71
2021/06/21 11:44:40;;;;;;;8.68;6.25;;;;;;;-140.51;100.00;70226.34;5123143;28;20186;-73
2021/06/21 11:47:14;;;;;;;8.77;6.10;;;;;;;-140.51;100.00;70226.34;5123119;28;20257;-70